createdAt,value
2022-07-31T00:02:08.105Z,95396.53
2022-07-31T00:04:34.936Z,95399.00
2022-07-31T00:07:01.820Z,95398.75
2022-07-31T00:09:54.128Z,95396.16
2022-07-31T00:12:17.359Z,95401.38
2022-07-31T00:14:44.276Z,95390.69
2022-07-31T00:17:10.964Z,95387.78
2022-07-31T00:19:37.563Z,95385.44
2022-07-31T00:22:04.205Z,95387.25
2022-07-31T00:24:30.872Z,95388.50
2022-07-31T00:26:57.533Z,95385.34
2022-07-31T00:29:24.280Z,95391.41
2022-07-31T00:31:51.115Z,95386.19
2022-07-31T00:34:18.116Z,95385.66
2022-07-31T00:36:44.783Z,95384.22
2022-07-31T00:39:11.389Z,95383.31
2022-07-31T00:41:43.488Z,95375.94
2022-07-31T00:44:12.454Z,95381.38
2022-07-31T00:46:40.509Z,95374.06
2022-07-31T00:49:10.182Z,95374.22
2022-07-31T00:51:38.184Z,95372.59
2022-07-31T00:54:06.118Z,95380.69
2022-07-31T00:56:32.769Z,95376.31
2022-07-31T00:58:59.996Z,95375.34
2022-07-31T01:01:27.635Z,95378.03
2022-07-31T01:03:54.829Z,95379.31
2022-07-31T01:06:21.830Z,95374.06
2022-07-31T01:08:49.027Z,95378.91
2022-07-31T01:11:38.968Z,95386.34
2022-07-31T01:14:09.294Z,95377.31
2022-07-31T01:16:40.579Z,95373.94
2022-07-31T01:19:47.126Z,95377.59
2022-07-31T01:22:35.250Z,95381.00
2022-07-31T01:25:23.899Z,95381.16
2022-07-31T01:28:22.286Z,95377.63
2022-07-31T01:31:10.646Z,95378.84
2022-07-31T01:34:09.016Z,95382.63
2022-07-31T01:36:39.586Z,95383.47
2022-07-31T01:39:06.452Z,95373.41
2022-07-31T01:41:40.336Z,95372.47
2022-07-31T01:44:13.661Z,95379.13
2022-07-31T01:46:43.717Z,95377.34
2022-07-31T01:49:12.419Z,95370.84
2022-07-31T01:51:43.809Z,95367.50
2022-07-31T01:54:11.607Z,95360.81
2022-07-31T01:56:40.352Z,95372.53
2022-07-31T01:59:15.553Z,95361.31
2022-07-31T02:02:06.521Z,95369.59
2022-07-31T02:04:37.998Z,95371.22
2022-07-31T02:07:08.097Z,95368.81
2022-07-31T02:09:35.972Z,95372.72
2022-07-31T02:12:03.600Z,95368.81
2022-07-31T02:14:36.397Z,95361.13
2022-07-31T02:17:04.034Z,95364.03
2022-07-31T02:20:00.794Z,95372.81
2022-07-31T02:22:29.389Z,95374.13
2022-07-31T02:24:56.142Z,95371.38
2022-07-31T02:27:53.562Z,95365.53
2022-07-31T02:30:13.439Z,95369.56
2022-07-31T02:32:41.810Z,95370.56
2022-07-31T02:35:09.749Z,95368.59
2022-07-31T02:37:38.352Z,95364.19
2022-07-31T02:40:06.584Z,95373.41
2022-07-31T02:42:34.217Z,95373.88
2022-07-31T02:45:02.506Z,95369.78
2022-07-31T02:47:29.715Z,95363.63
2022-07-31T02:49:59.469Z,95367.34
2022-07-31T02:52:26.585Z,95366.31
2022-07-31T02:54:53.918Z,95366.91
2022-07-31T02:57:20.691Z,95370.94
2022-07-31T02:59:47.635Z,95369.31
2022-07-31T03:02:14.913Z,95362.22
2022-07-31T03:04:44.241Z,95364.44
2022-07-31T03:07:10.932Z,95362.34
2022-07-31T03:09:37.715Z,95359.31
2022-07-31T03:12:25.271Z,95357.69
2022-07-31T03:14:54.496Z,95361.56
2022-07-31T03:17:23.822Z,95362.22
2022-07-31T03:20:06.566Z,95369.19
2022-07-31T03:22:33.724Z,95364.00
2022-07-31T03:25:01.842Z,95364.16
2022-07-31T03:27:30.081Z,95370.47
2022-07-31T03:29:57.099Z,95369.19
2022-07-31T03:32:23.873Z,95367.75
2022-07-31T03:34:50.467Z,95371.28
2022-07-31T03:37:17.138Z,95372.56
2022-07-31T03:39:43.802Z,95367.00
2022-07-31T03:42:18.691Z,95368.97
2022-07-31T03:44:47.916Z,95373.53
2022-07-31T03:47:16.362Z,95365.41
2022-07-31T03:49:43.934Z,95369.97
2022-07-31T03:52:12.574Z,95367.81
2022-07-31T03:54:40.325Z,95370.91
2022-07-31T03:57:22.029Z,95363.94
2022-07-31T03:59:57.662Z,95366.03
2022-07-31T04:02:28.965Z,95364.22
2022-07-31T04:05:09.520Z,95365.72
2022-07-31T04:07:36.842Z,95366.63
2022-07-31T04:10:03.852Z,95369.97
2022-07-31T04:12:30.573Z,95365.03
2022-07-31T04:14:57.244Z,95366.81
2022-07-31T04:17:23.911Z,95371.16
2022-07-31T04:19:50.585Z,95369.00
2022-07-31T04:22:17.307Z,95371.78
2022-07-31T04:24:44.136Z,95373.06
2022-07-31T04:27:31.587Z,95376.13
2022-07-31T04:29:58.385Z,95380.69
2022-07-31T04:32:25.496Z,95387.16
2022-07-31T04:34:54.775Z,95387.00
2022-07-31T04:37:21.607Z,95388.81
2022-07-31T04:39:48.398Z,95392.19
2022-07-31T04:42:15.572Z,95392.03
2022-07-31T04:44:42.191Z,95399.03
2022-07-31T04:47:09.032Z,95392.50
2022-07-31T04:49:41.563Z,95388.44
2022-07-31T04:52:08.818Z,95394.81
2022-07-31T04:54:38.559Z,95386.53
2022-07-31T04:57:07.417Z,95387.41
2022-07-31T04:59:59.808Z,95391.81
2022-07-31T05:02:21.404Z,95392.16
2022-07-31T05:04:56.588Z,95388.75
2022-07-31T05:07:27.851Z,95397.38
2022-07-31T05:09:56.911Z,95395.75
2022-07-31T05:12:23.837Z,95387.78
2022-07-31T05:14:50.529Z,95386.25
2022-07-31T05:17:17.246Z,95394.00
2022-07-31T05:20:13.227Z,95388.22
2022-07-31T05:23:02.758Z,95388.72
2022-07-31T05:25:53.411Z,95381.34
2022-07-31T05:28:20.056Z,95386.78
2022-07-31T05:30:57.643Z,95383.84
2022-07-31T05:33:24.396Z,95390.69
2022-07-31T05:35:51.052Z,95386.88
2022-07-31T05:38:17.688Z,95389.28
2022-07-31T05:41:04.954Z,95386.56
2022-07-31T05:43:42.632Z,95392.66
2022-07-31T05:46:17.266Z,95392.56
2022-07-31T05:48:44.941Z,95390.94
2022-07-31T05:51:13.247Z,95392.81
2022-07-31T05:53:41.184Z,95391.69
2022-07-31T05:56:31.228Z,95390.84
2022-07-31T05:58:59.566Z,95391.88
2022-07-31T06:01:26.253Z,95396.34
2022-07-31T06:03:53.296Z,95394.63
2022-07-31T06:06:22.898Z,95399.84
2022-07-31T06:08:49.757Z,95401.13
2022-07-31T06:11:16.405Z,95395.91
2022-07-31T06:13:43.352Z,95395.97
2022-07-31T06:16:26.728Z,95402.03
2022-07-31T06:18:53.358Z,95407.75
2022-07-31T06:23:46.042Z,95402.88
2022-07-31T06:26:21.558Z,95397.91
2022-07-31T06:28:51.066Z,95403.94
2022-07-31T06:31:20.676Z,95407.78
2022-07-31T06:33:49.483Z,95402.19
2022-07-31T06:36:18.094Z,95402.47
2022-07-31T06:38:55.963Z,95407.09
2022-07-31T06:41:47.592Z,95406.91
2022-07-31T06:44:46.262Z,95402.31
2022-07-31T06:47:46.058Z,95402.31
2022-07-31T06:50:35.805Z,95401.97
2022-07-31T06:53:23.559Z,95400.59
2022-07-31T06:55:50.627Z,95410.03
2022-07-31T06:58:17.353Z,95412.66
2022-07-31T07:00:44.648Z,95407.00
2022-07-31T07:03:11.319Z,95411.44
2022-07-31T07:05:37.961Z,95411.00
2022-07-31T07:08:04.915Z,95413.06
2022-07-31T07:10:33.033Z,95410.88
2022-07-31T07:12:59.676Z,95405.88
2022-07-31T07:15:29.356Z,95410.63
2022-07-31T07:17:56.088Z,95410.84
2022-07-31T07:20:33.850Z,95408.00
2022-07-31T07:23:00.721Z,95405.81
2022-07-31T07:25:36.733Z,95406.22
2022-07-31T07:28:03.719Z,95406.59
2022-07-31T07:30:30.770Z,95405.84
2022-07-31T07:33:00.121Z,95395.16
2022-07-31T07:35:32.038Z,95401.03
2022-07-31T07:38:03.025Z,95399.66
2022-07-31T07:40:30.238Z,95403.06
2022-07-31T07:43:01.202Z,95398.88
2022-07-31T07:45:30.074Z,95396.25
2022-07-31T07:48:06.805Z,95399.50
2022-07-31T07:50:56.172Z,95394.28
2022-07-31T07:53:41.813Z,95395.69
2022-07-31T07:56:46.326Z,95389.66
2022-07-31T07:59:22.353Z,95393.28
2022-07-31T08:02:16.205Z,95393.91
2022-07-31T08:04:47.291Z,95395.66
2022-07-31T08:07:14.345Z,95394.41
2022-07-31T08:09:41.066Z,95389.34
2022-07-31T08:12:40.697Z,95389.78
2022-07-31T08:15:08.059Z,95380.13
2022-07-31T08:17:53.361Z,95380.63
2022-07-31T08:20:21.833Z,95380.88
2022-07-31T08:22:49.766Z,95382.75
2022-07-31T08:25:16.542Z,95385.03
2022-07-31T08:27:47.847Z,95371.28
2022-07-31T08:30:16.105Z,95376.22
2022-07-31T08:32:42.750Z,95373.56
2022-07-31T08:35:31.746Z,95372.41
2022-07-31T08:38:03.308Z,95379.09
2022-07-31T08:40:43.235Z,95379.47
2022-07-31T08:44:00.722Z,95381.56
2022-07-31T08:46:02.816Z,95380.63
2022-07-31T08:48:34.409Z,95381.78
2022-07-31T08:51:03.668Z,95379.84
2022-07-31T08:54:07.667Z,95382.41
2022-07-31T08:56:35.455Z,95385.38
2022-07-31T08:59:03.555Z,95381.47
2022-07-31T09:01:32.875Z,95379.31
2022-07-31T09:04:00.035Z,95377.00
2022-07-31T09:06:26.950Z,95372.47
2022-07-31T09:08:55.897Z,95380.78
2022-07-31T09:11:24.101Z,95370.38
2022-07-31T09:14:14.697Z,95361.50
2022-07-31T09:16:47.191Z,95361.47
2022-07-31T09:19:52.822Z,95366.78
2022-07-31T09:22:18.625Z,95361.00
2022-07-31T09:24:45.818Z,95366.94
2022-07-31T09:27:14.503Z,95362.59
2022-07-31T09:29:44.975Z,95345.69
2022-07-31T09:32:25.558Z,95354.50
2022-07-31T09:35:15.410Z,95354.56
2022-07-31T09:37:46.991Z,95354.97
2022-07-31T09:40:40.003Z,95352.81
2022-07-31T09:44:10.126Z,95348.44
2022-07-31T09:46:48.335Z,95348.78
2022-07-31T09:49:15.288Z,95346.78
2022-07-31T09:51:49.555Z,95348.31
2022-07-31T09:54:24.814Z,95353.38
2022-07-31T09:57:12.388Z,95357.72
2022-07-31T09:59:44.926Z,95355.09
2022-07-31T10:02:14.432Z,95347.97
2022-07-31T10:04:43.032Z,95347.72
2022-07-31T10:07:31.434Z,95352.56
2022-07-31T10:10:22.255Z,95349.09
2022-07-31T10:13:20.715Z,95351.06
2022-07-31T10:15:50.489Z,95345.63
2022-07-31T10:18:42.787Z,95345.59
2022-07-31T10:21:24.693Z,95343.16
2022-07-31T10:24:02.814Z,95346.63
2022-07-31T10:26:50.749Z,95341.13
2022-07-31T10:29:17.941Z,95345.56
2022-07-31T10:31:46.631Z,95341.50
2022-07-31T10:34:15.282Z,95348.03
2022-07-31T10:37:11.121Z,95341.75
2022-07-31T10:39:59.494Z,95339.59
2022-07-31T10:42:43.077Z,95343.00
2022-07-31T10:45:14.053Z,95342.22
2022-07-31T10:48:03.984Z,95345.00
2022-07-31T10:51:09.558Z,95342.00
2022-07-31T10:54:14.135Z,95333.06
2022-07-31T10:56:59.313Z,95338.91
2022-07-31T10:59:44.863Z,95328.13
2022-07-31T11:02:14.563Z,95330.22
2022-07-31T11:05:07.665Z,95326.19
2022-07-31T11:08:04.717Z,95329.25
2022-07-31T11:10:55.822Z,95325.25
2022-07-31T11:13:57.878Z,95325.31
2022-07-31T11:17:00.023Z,95318.97
2022-07-31T11:19:53.039Z,95319.88
2022-07-31T11:22:30.997Z,95324.38
2022-07-31T11:24:58.981Z,95327.34
2022-07-31T11:27:32.923Z,95335.22
2022-07-31T11:30:12.436Z,95323.72
2022-07-31T11:32:40.422Z,95324.97
2022-07-31T11:35:07.617Z,95326.09
2022-07-31T11:37:46.199Z,95316.97
2022-07-31T11:40:16.070Z,95319.25
2022-07-31T11:42:46.227Z,95322.88
2022-07-31T11:45:15.217Z,95322.22
2022-07-31T11:48:10.777Z,95321.91
2022-07-31T11:50:42.600Z,95317.19
2022-07-31T11:53:09.477Z,95314.44
2022-07-31T11:56:08.408Z,95315.84
2022-07-31T11:58:36.005Z,95312.31
2022-07-31T12:01:04.759Z,95306.25
2022-07-31T12:03:36.392Z,95301.50
2022-07-31T12:06:05.074Z,95308.41
2022-07-31T12:08:32.455Z,95299.84
2022-07-31T12:11:00.294Z,95305.66
2022-07-31T12:13:28.084Z,95301.69
2022-07-31T12:15:54.613Z,95297.53
2022-07-31T12:18:21.772Z,95297.34
2022-07-31T12:20:56.016Z,95301.66
2022-07-31T12:23:40.950Z,95302.28
2022-07-31T12:26:10.628Z,95299.19
2022-07-31T12:28:37.577Z,95303.47
2022-07-31T12:31:04.566Z,95298.13
2022-07-31T12:33:41.867Z,95292.28
2022-07-31T12:36:13.626Z,95297.56
2022-07-31T12:38:45.196Z,95292.72
2022-07-31T12:41:15.356Z,95286.41
2022-07-31T12:43:50.076Z,95283.19
2022-07-31T12:46:21.093Z,95279.72
2022-07-31T12:48:47.843Z,95278.88
2022-07-31T12:51:14.497Z,95276.47
2022-07-31T12:53:41.097Z,95270.06
2022-07-31T12:56:11.863Z,95270.22
2022-07-31T12:58:38.490Z,95269.53
2022-07-31T13:01:05.138Z,95260.47
2022-07-31T13:03:46.032Z,95257.91
2022-07-31T13:06:13.921Z,95257.22
2022-07-31T13:08:40.748Z,95260.97
2022-07-31T13:11:07.397Z,95256.63
2022-07-31T13:13:34.023Z,95250.44
2022-07-31T13:16:00.733Z,95241.09
2022-07-31T13:18:27.348Z,95244.16
2022-07-31T13:20:54.063Z,95243.47
2022-07-31T13:23:21.422Z,95233.06
2022-07-31T13:25:48.141Z,95238.34
2022-07-31T13:28:14.770Z,95235.19
2022-07-31T13:30:41.663Z,95236.25
2022-07-31T13:33:08.438Z,95233.22
2022-07-31T13:35:35.119Z,95234.03
2022-07-31T13:38:01.789Z,95226.31
2022-07-31T13:40:47.413Z,95235.88
2022-07-31T13:43:17.361Z,95223.16
2022-07-31T13:45:44.200Z,95230.97
2022-07-31T13:48:10.820Z,95222.63
2022-07-31T13:50:40.334Z,95228.91
2022-07-31T13:53:07.218Z,95217.41
2022-07-31T13:55:33.914Z,95221.94
2022-07-31T13:58:01.444Z,95221.31
2022-07-31T14:00:29.693Z,95223.84
2022-07-31T14:02:56.992Z,95222.16
2022-07-31T14:05:26.596Z,95224.16
2022-07-31T14:07:54.844Z,95225.94
2022-07-31T14:10:22.106Z,95222.81
2022-07-31T14:12:49.150Z,95218.97
2022-07-31T14:15:18.102Z,95211.38
2022-07-31T14:17:44.930Z,95218.03
2022-07-31T14:20:12.475Z,95211.06
2022-07-31T14:22:39.240Z,95213.75
2022-07-31T14:25:06.007Z,95209.94
2022-07-31T14:27:34.301Z,95210.84
2022-07-31T14:30:01.646Z,95204.13
2022-07-31T14:32:30.443Z,95207.72
2022-07-31T14:34:57.072Z,95205.91
2022-07-31T14:37:23.788Z,95204.44
2022-07-31T14:39:50.468Z,95205.34
2022-07-31T14:42:27.370Z,95204.59
2022-07-31T14:44:55.078Z,95206.28
2022-07-31T14:47:21.793Z,95198.22
2022-07-31T14:50:09.628Z,95190.06
2022-07-31T14:52:35.055Z,95197.59
2022-07-31T14:55:01.892Z,95193.38
2022-07-31T14:57:29.969Z,95198.72
2022-07-31T14:59:56.662Z,95193.03
2022-07-31T15:02:23.605Z,95183.88
2022-07-31T15:04:51.660Z,95191.31
2022-07-31T15:07:34.725Z,95187.53
2022-07-31T15:10:07.794Z,95186.03
2022-07-31T15:12:34.579Z,95182.34
2022-07-31T15:15:01.374Z,95184.00
2022-07-31T15:17:28.351Z,95184.38
2022-07-31T15:19:55.208Z,95183.91
2022-07-31T15:22:21.826Z,95185.75
2022-07-31T15:24:50.048Z,95178.53
2022-07-31T15:27:21.948Z,95177.16
2022-07-31T15:30:00.728Z,95177.88
2022-07-31T15:32:38.916Z,95172.78
2022-07-31T15:35:08.223Z,95175.09
2022-07-31T15:37:39.198Z,95176.69
2022-07-31T15:40:09.975Z,95172.91
2022-07-31T15:42:40.046Z,95165.94
2022-07-31T15:45:08.960Z,95162.81
2022-07-31T15:47:35.622Z,95166.31
2022-07-31T15:50:02.821Z,95165.25
2022-07-31T15:52:29.444Z,95164.44
2022-07-31T15:54:56.204Z,95153.28
2022-07-31T15:57:23.761Z,95164.84
2022-07-31T15:59:51.580Z,95163.72
2022-07-31T16:02:18.328Z,95162.38
2022-07-31T16:04:52.985Z,95159.44
2022-07-31T16:08:30.767Z,95161.38
2022-07-31T16:10:15.415Z,95164.16
2022-07-31T16:12:45.706Z,95157.19
2022-07-31T16:15:30.601Z,95151.66
2022-07-31T16:17:58.625Z,95152.72
2022-07-31T16:20:26.803Z,95149.03
2022-07-31T16:23:02.933Z,95149.03
2022-07-31T16:25:31.924Z,95142.69
2022-07-31T16:28:02.231Z,95139.97
2022-07-31T16:30:28.867Z,95145.00
2022-07-31T16:32:55.571Z,95142.03
2022-07-31T16:35:22.384Z,95138.47
2022-07-31T16:37:50.991Z,95133.00
2022-07-31T16:40:29.190Z,95135.41
2022-07-31T16:43:47.755Z,95124.28
2022-07-31T16:45:54.406Z,95130.00
2022-07-31T16:48:21.394Z,95119.72
2022-07-31T16:50:53.275Z,95130.53
2022-07-31T16:54:11.544Z,95130.50
2022-07-31T16:56:08.009Z,95126.59
2022-07-31T16:58:35.008Z,95127.44
2022-07-31T17:01:04.047Z,95137.28
2022-07-31T17:04:01.684Z,95131.88
2022-07-31T17:06:17.709Z,95131.47
2022-07-31T17:08:44.391Z,95130.47
2022-07-31T17:11:11.196Z,95130.41
2022-07-31T17:13:37.837Z,95125.72
2022-07-31T17:16:04.818Z,95128.00
2022-07-31T17:18:31.478Z,95127.69
2022-07-31T17:20:59.672Z,95130.16
2022-07-31T17:23:43.567Z,95129.00
2022-07-31T17:26:21.165Z,95133.19
2022-07-31T17:28:50.336Z,95128.34
2022-07-31T17:31:17.926Z,95125.63
2022-07-31T17:33:54.856Z,95131.09
2022-07-31T17:36:26.705Z,95129.69
2022-07-31T17:38:53.330Z,95132.38
2022-07-31T17:41:25.098Z,95134.94
2022-07-31T17:43:55.565Z,95131.94
2022-07-31T17:46:29.965Z,95129.81
2022-07-31T17:49:03.388Z,95136.41
2022-07-31T17:51:30.048Z,95135.34
2022-07-31T17:53:59.123Z,95138.41
2022-07-31T17:56:26.782Z,95140.97
2022-07-31T17:58:53.854Z,95141.59
2022-07-31T18:01:23.331Z,95143.09
2022-07-31T18:03:52.355Z,95143.81
2022-07-31T18:06:18.970Z,95142.44
2022-07-31T18:08:45.612Z,95142.03
2022-07-31T18:11:12.203Z,95141.06
2022-07-31T18:13:48.370Z,95147.75
2022-07-31T18:16:18.572Z,95149.09
2022-07-31T18:18:45.484Z,95146.59
2022-07-31T18:21:12.398Z,95151.44
2022-07-31T18:23:44.066Z,95153.38
2022-07-31T18:26:14.524Z,95152.81
2022-07-31T18:28:41.465Z,95150.56
2022-07-31T18:31:31.510Z,95147.94
2022-07-31T18:33:55.079Z,95143.34
2022-07-31T18:36:21.702Z,95140.72
2022-07-31T18:38:48.374Z,95142.22
2022-07-31T18:41:15.041Z,95147.16
2022-07-31T18:43:41.652Z,95145.00
2022-07-31T18:46:08.238Z,95148.91
2022-07-31T18:48:34.914Z,95145.13
2022-07-31T18:51:04.751Z,95146.19
2022-07-31T18:53:33.053Z,95144.91
2022-07-31T18:55:59.979Z,95136.41
2022-07-31T18:58:26.685Z,95146.03
2022-07-31T19:00:55.146Z,95144.78
2022-07-31T19:03:23.521Z,95140.78
2022-07-31T19:05:52.782Z,95148.56
2022-07-31T19:08:20.600Z,95147.53
2022-07-31T19:10:49.343Z,95153.38
2022-07-31T19:13:19.171Z,95150.72
2022-07-31T19:15:51.594Z,95158.63
2022-07-31T19:18:24.519Z,95159.31
2022-07-31T19:21:19.123Z,95156.06
2022-07-31T19:23:43.316Z,95159.69
2022-07-31T19:26:09.943Z,95155.31
2022-07-31T19:28:38.154Z,95158.75
2022-07-31T19:31:05.504Z,95153.59
2022-07-31T19:33:32.125Z,95148.66
2022-07-31T19:36:02.185Z,95154.47
2022-07-31T19:38:29.852Z,95154.84
2022-07-31T19:40:56.491Z,95155.72
2022-07-31T19:43:23.563Z,95153.78
2022-07-31T19:46:09.740Z,95159.69
2022-07-31T19:48:37.061Z,95164.09
2022-07-31T19:51:04.656Z,95163.38
2022-07-31T19:53:31.601Z,95158.53
2022-07-31T19:56:00.325Z,95159.19
2022-07-31T19:58:26.948Z,95162.91
2022-07-31T20:00:53.570Z,95161.97
2022-07-31T20:03:20.298Z,95165.19
2022-07-31T20:05:46.963Z,95161.91
2022-07-31T20:08:13.544Z,95161.91
2022-07-31T20:10:40.159Z,95159.72
2022-07-31T20:13:06.761Z,95161.25
2022-07-31T20:15:52.132Z,95160.66
2022-07-31T20:18:27.129Z,95157.91
2022-07-31T20:21:14.922Z,95156.44
2022-07-31T20:23:42.009Z,95158.38
2022-07-31T20:26:11.503Z,95152.53
2022-07-31T20:28:40.264Z,95152.19
2022-07-31T20:31:08.465Z,95156.38
2022-07-31T20:33:47.523Z,95157.41
2022-07-31T20:36:25.782Z,95155.59
2022-07-31T20:38:52.521Z,95154.47
2022-07-31T20:41:19.220Z,95143.56
2022-07-31T20:43:45.928Z,95147.09
2022-07-31T20:46:12.652Z,95151.56
2022-07-31T20:48:39.333Z,95144.66
2022-07-31T20:51:09.050Z,95144.91
2022-07-31T20:53:35.770Z,95142.41
2022-07-31T20:56:02.514Z,95141.69
2022-07-31T20:58:29.166Z,95131.84
2022-07-31T21:00:55.935Z,95139.41
2022-07-31T21:03:23.313Z,95137.19
2022-07-31T21:05:50.163Z,95132.81
2022-07-31T21:08:17.645Z,95139.59
2022-07-31T21:10:44.515Z,95124.25
2022-07-31T21:13:11.477Z,95130.09
2022-07-31T21:15:43.737Z,95129.91
2022-07-31T21:18:16.420Z,95126.63
2022-07-31T21:20:50.110Z,95128.28
2022-07-31T21:23:24.610Z,95124.53
2022-07-31T21:25:52.740Z,95122.31
2022-07-31T21:28:20.016Z,95125.88
2022-07-31T21:30:47.163Z,95125.19
2022-07-31T21:33:14.094Z,95128.81
2022-07-31T21:35:41.359Z,95125.41
2022-07-31T21:38:11.878Z,95125.84
2022-07-31T21:40:40.244Z,95122.44
2022-07-31T21:43:07.725Z,95126.44
2022-07-31T21:45:50.491Z,95126.66
2022-07-31T21:48:23.184Z,95124.28
2022-07-31T21:50:50.137Z,95121.63
2022-07-31T21:53:16.765Z,95127.13
2022-07-31T21:55:43.939Z,95122.28
2022-07-31T21:58:10.729Z,95118.63
2022-07-31T22:00:37.829Z,95131.59
2022-07-31T22:03:04.946Z,95132.00
2022-07-31T22:05:50.643Z,95130.16
2022-07-31T22:08:17.395Z,95128.25
2022-07-31T22:10:44.297Z,95128.63
2022-07-31T22:13:10.993Z,95134.78
2022-07-31T22:15:59.439Z,95125.88
2022-07-31T22:18:30.229Z,95129.19
2022-07-31T22:20:57.402Z,95129.66
2022-07-31T22:23:24.316Z,95126.16
2022-07-31T22:25:50.961Z,95124.41
2022-07-31T22:28:19.672Z,95132.59
2022-07-31T22:30:46.909Z,95125.59
2022-07-31T22:33:14.368Z,95128.06
2022-07-31T22:35:41.115Z,95126.72
2022-07-31T22:38:08.909Z,95128.75
2022-07-31T22:40:35.682Z,95125.00
2022-07-31T22:43:03.436Z,95129.84
2022-07-31T22:45:30.407Z,95128.50
2022-07-31T22:47:58.375Z,95126.25
2022-07-31T22:50:25.450Z,95123.75
2022-07-31T22:52:52.703Z,95127.44
2022-07-31T22:55:19.556Z,95125.78
2022-07-31T22:57:46.305Z,95128.84
2022-07-31T23:00:14.680Z,95128.69
2022-07-31T23:02:42.452Z,95122.31
2022-07-31T23:05:10.177Z,95119.03
2022-07-31T23:07:37.476Z,95122.66
2022-07-31T23:10:06.165Z,95124.09
2022-07-31T23:12:32.978Z,95136.66
2022-07-31T23:14:59.687Z,95130.66
2022-07-31T23:17:26.351Z,95135.56
2022-07-31T23:19:53.976Z,95134.22
2022-07-31T23:22:33.278Z,95135.69
2022-07-31T23:25:10.167Z,95131.06
2022-07-31T23:27:36.893Z,95129.91
2022-07-31T23:30:04.311Z,95130.94
2022-07-31T23:32:30.965Z,95129.97
2022-07-31T23:34:57.869Z,95130.59
2022-07-31T23:37:24.476Z,95126.41
2022-07-31T23:39:51.057Z,95136.16
2022-07-31T23:42:36.544Z,95129.31
2022-07-31T23:45:04.285Z,95130.31
2022-07-31T23:47:45.859Z,95135.03
2022-07-31T23:50:14.100Z,95124.16
2022-07-31T23:52:41.159Z,95134.88
2022-07-31T23:55:08.088Z,95135.91
2022-07-31T23:57:36.107Z,95140.13
